Terminal Aerodrome Forecast
Issued by NWS

Current Version | Previous Version | Text Only | Print | Product List | Glossary On
Versions: 1 2 3 4 5 6 7 8 9
000
FTUS42 KILM 280500
TAFCRE
TAF
KCRE 280534Z 2806/2906 00000KT P6SM BKN140
     FM280900 VRB02KT 4SM BR SCT020 BKN120
     FM281400 23008KT P6SM BKN025 BKN050
     FM290000 22004KT 3SM BR SCT003 BKN015=

USA.gov is the U.S. government's official web portal to all federal, state and local government web resources and services.